Stations météo

réclame
Mon MeteoGroup
Cambridge (NIAB), Grande-Bretagne (99123): Température de l'air & dewpoint: 20.09.2020 16:00:00 - 26.09.2020 16:00:00 (BST)Cambridge (NIAB), Grande-Bretagne (99123): Quantités de précipitations: 20.09.2020 16:00:00 - 26.09.2020 16:00:00 (BST)
Date & Time tt [°C] td [°C] rr [mm]
26.09.2020 16:00:00 - - -
26.09.2020 15:00:00 10,3 6,9 0,0
26.09.2020 14:00:00 10,8 5,8 0,0
26.09.2020 13:00:00 10,7 5,4 0,0
26.09.2020 12:00:00 10,1 5,0 0,2
26.09.2020 11:00:00 8,6 4,6 0,0
26.09.2020 10:00:00 7,9 3,3 0,0
26.09.2020 09:00:00 7,2 2,2 0,0
26.09.2020 08:00:00 5,7 1,8 0,0
26.09.2020 07:00:00 5,8 1,6 0,0
26.09.2020 06:00:00 6,7 1,9 0,0
26.09.2020 05:00:00 7,1 2,1 0,0
26.09.2020 04:00:00 7,6 2,5 0,0
26.09.2020 03:00:00 7,9 2,6 0,0
26.09.2020 02:00:00 8,2 2,6 0,0
26.09.2020 01:00:00 8,8 3,0 0,0
26.09.2020 00:00:00 9,7 3,8 0,0
25.09.2020 23:00:00 10,2 5,0 0,0
25.09.2020 22:00:00 10,1 6,2 0,0
25.09.2020 21:00:00 10,5 5,6 0,0
25.09.2020 20:00:00 11,2 3,0 0,0
25.09.2020 19:00:00 12,1 1,6 0,0
25.09.2020 18:00:00 13,1 2,4 0,0
25.09.2020 17:00:00 13,0 3,6 0,0
25.09.2020 16:00:00 12,9 4,8 0,0
25.09.2020 15:00:00 12,3 4,9 0,0
25.09.2020 14:00:00 11,9 5,4 0,0
25.09.2020 13:00:00 11,9 5,8 0,0
25.09.2020 12:00:00 11,4 6,0 0,0
25.09.2020 11:00:00 10,4 6,3 0,0
25.09.2020 10:00:00 10,0 6,3 0,0
25.09.2020 09:00:00 9,5 6,4 0,0
25.09.2020 08:00:00 8,8 6,9 -
25.09.2020 07:00:00 8,7 7,4 1,2
25.09.2020 06:00:00 8,7 7,3 0,4
25.09.2020 05:00:00 8,7 7,5 0,0
25.09.2020 04:00:00 8,6 7,5 0,0
25.09.2020 03:00:00 9,0 6,9 0,0
25.09.2020 02:00:00 8,8 6,8 0,0
25.09.2020 01:00:00 8,7 7,0 0,0
25.09.2020 00:00:00 9,1 7,0 0,0
24.09.2020 23:00:00 10,0 7,9 0,0
24.09.2020 22:00:00 9,9 8,3 0,0
24.09.2020 21:00:00 10,1 8,0 0,0
24.09.2020 20:00:00 11,3 7,4 0,0
24.09.2020 19:00:00 11,4 6,8 0,0
24.09.2020 18:00:00 11,9 6,3 0,0
24.09.2020 17:00:00 12,5 6,3 0,0
24.09.2020 16:00:00 13,5 5,7 0,0
24.09.2020 15:00:00 14,5 6,1 0,0
24.09.2020 14:00:00 14,4 6,1 0,0
24.09.2020 13:00:00 14,0 7,8 0,0
24.09.2020 12:00:00 14,6 8,5 0,0
24.09.2020 11:00:00 13,5 8,9 0,0
24.09.2020 10:00:00 12,5 9,5 0,0
24.09.2020 09:00:00 11,6 10,0 0,2
24.09.2020 08:00:00 9,6 8,5 0,0
24.09.2020 07:00:00 8,7 7,8 0,2
24.09.2020 06:00:00 8,3 7,5 0,0
24.09.2020 05:00:00 7,8 6,8 0,0
24.09.2020 04:00:00 7,7 6,6 0,0
24.09.2020 03:00:00 8,0 6,8 0,0
24.09.2020 02:00:00 8,7 7,5 0,0
24.09.2020 01:00:00 9,5 7,8 0,0
24.09.2020 00:00:00 10,1 8,9 0,6
23.09.2020 23:00:00 10,7 8,9 1,0
23.09.2020 22:00:00 11,7 11,2 9,6
23.09.2020 21:00:00 12,6 12,4 0,2
23.09.2020 20:00:00 12,3 11,9 0,0
23.09.2020 19:00:00 12,9 12,2 0,8
23.09.2020 18:00:00 12,7 11,9 3,8
23.09.2020 17:00:00 15,9 14,6 4,2
23.09.2020 16:00:00 17,6 14,2 0,0
23.09.2020 15:00:00 18,1 13,7 0,0
23.09.2020 14:00:00 17,4 13,1 0,0
23.09.2020 13:00:00 17,5 13,4 0,0
23.09.2020 12:00:00 17,1 14,1 0,0
23.09.2020 11:00:00 16,5 14,2 0,0
23.09.2020 10:00:00 15,8 14,8 0,0
23.09.2020 09:00:00 15,4 14,7 0,0
23.09.2020 08:00:00 14,6 14,4 2,0
23.09.2020 07:00:00 14,4 14,2 9,0
23.09.2020 06:00:00 14,7 14,3 4,8
23.09.2020 05:00:00 15,1 13,8 0,0
23.09.2020 04:00:00 15,7 13,1 0,0
23.09.2020 03:00:00 15,8 13,2 0,0
23.09.2020 02:00:00 16,5 13,5 0,0
23.09.2020 01:00:00 16,5 14,0 0,0
23.09.2020 00:00:00 17,3 14,2 0,0
22.09.2020 23:00:00 17,0 13,4 0,0
22.09.2020 22:00:00 18,2 13,8 0,0
22.09.2020 21:00:00 18,2 13,2 0,0
22.09.2020 20:00:00 19,1 13,7 0,0
22.09.2020 19:00:00 20,5 13,5 0,0
22.09.2020 18:00:00 22,9 11,0 0,0
22.09.2020 17:00:00 24,2 8,9 0,0
22.09.2020 16:00:00 25,1 11,0 0,0
22.09.2020 15:00:00 25,0 11,0 0,0
22.09.2020 14:00:00 25,0 12,5 0,0
22.09.2020 13:00:00 24,3 14,1 0,0
22.09.2020 12:00:00 23,6 14,0 0,0
22.09.2020 11:00:00 21,1 13,1 0,0
22.09.2020 10:00:00 18,5 13,7 0,0
22.09.2020 09:00:00 16,0 13,4 0,0
22.09.2020 08:00:00 13,0 12,4 0,0
22.09.2020 07:00:00 11,1 10,5 0,0
22.09.2020 06:00:00 11,7 11,1 0,0
22.09.2020 05:00:00 11,7 11,1 0,0
22.09.2020 04:00:00 12,0 11,0 0,0
22.09.2020 03:00:00 12,2 11,5 0,0
22.09.2020 02:00:00 12,2 11,3 0,0
22.09.2020 01:00:00 12,4 10,9 0,0
22.09.2020 00:00:00 13,5 11,8 0,0
21.09.2020 23:00:00 13,7 11,9 0,0
21.09.2020 22:00:00 14,2 11,4 0,0
21.09.2020 21:00:00 14,6 9,5 0,0
21.09.2020 20:00:00 16,9 12,1 0,0
21.09.2020 19:00:00 20,0 12,2 0,0
21.09.2020 18:00:00 22,8 12,1 0,0
21.09.2020 17:00:00 23,4 11,9 0,0
21.09.2020 16:00:00 22,6 11,5 0,0
21.09.2020 15:00:00 21,8 11,5 0,0
21.09.2020 14:00:00 21,1 12,2 0,0
21.09.2020 13:00:00 19,4 12,0 0,0
21.09.2020 12:00:00 18,4 12,0 0,0
21.09.2020 11:00:00 16,1 11,8 0,0
21.09.2020 10:00:00 14,4 12,7 0,0
21.09.2020 09:00:00 11,8 11,5 0,0
21.09.2020 08:00:00 10,8 10,8 0,0
21.09.2020 07:00:00 10,4 10,1 0,0
21.09.2020 06:00:00 11,5 10,5 0,0
21.09.2020 05:00:00 12,8 11,8 0,0
21.09.2020 04:00:00 12,7 11,7 0,0
21.09.2020 03:00:00 12,4 11,5 0,0
21.09.2020 02:00:00 12,5 11,6 0,0
21.09.2020 01:00:00 12,4 11,5 0,0
21.09.2020 00:00:00 12,3 11,2 0,0
20.09.2020 23:00:00 12,9 11,3 0,0
20.09.2020 22:00:00 13,8 11,4 0,0
20.09.2020 21:00:00 14,8 11,6 0,0
20.09.2020 20:00:00 15,9 11,7 0,0
20.09.2020 19:00:00 17,6 12,0 0,0
20.09.2020 18:00:00 19,4 12,1 0,0
20.09.2020 17:00:00 20,4 12,3 0,0
20.09.2020 16:00:00 21,7 12,0 0,0

tt = Température de l'air
td = dewpoint
rr = Quantités de précipitations

stations d'obs. à proximité